Aviation Digital Data Service (ADDS)

Output produced by METARs form (0520 UTC 24 January 2019)
found at http://www.aviationweather.gov/metar/data/
 
Forecast for: RPLI (LAOAG INTL(PH-AR, PH)
Text: TAF RPLI 240500Z 2406/2506 06007KT 9999 FEW018 SCT290
Forecast period: 0600 UTC 24 January 2019 to 0600 UTC 25 January 2019
Forecast type: FROM: standard forecast or significant change
Winds: from the ENE (60 degrees) at 8 MPH (7 knots; 3.6 m/s)
Visibility: 6 or more miles 10+ km)
Ceiling: at least 12,000 feet AGL
Clouds: few clouds at 1800 feet AGL
scattered clouds at 29000 feet AGL
Weather: no significant weather forecast for this period
Text: TEMPO 2406/2412 06012G25KT
Forecast period: 0600 to 1200 UTC 24 January 2019
Forecast type: TEMPORARY: The following changes expected for less than half the time period
Winds: from the ENE (60 degrees) at 14 MPH (12 knots; 6.2 m/s)
gusting to 29 MPH (25 knots; 12.9 m/s)
Visibility: missing
Ceiling: unknown
Clouds: missing
Weather: no significant weather forecast for this period